Jacksonburg, Indiana
Current Conditions -  °F | °C
As of 5:53 AM on Sunday 23 Nov 2014 (Local Time) from KMIE Reporting Station
Broken Clouds Broken Clouds  
Wind Chill: 50°   Ceiling: 9500
Heat Index: 50°   Visibility: 10mi
Dew Point: 40°   Wind: 13mph
Humidity: 68%   Direction: 180°S
Pressure: 29.92"   Gusts: NA
Location:  39.8349°N, 85.156°W
Report Text: KMIE 231053Z 18011KT 10SM SCT075 BKN095 10/04 A2992 RMK AO2 SLP127 T01000044
Loading
Personal Weather Stations






























Interactive Weather Map New forecast layout! Learn more

10-Day Weather Forecast

Advertisements
Track Severe Weather on mobile